Sign in

Goboko Update

Goboko is set to continue

The Goboko booking system is to continue under a new operator, a member of one of our longest-subscribed flying clubs

The new and previous operators of the site are working to ensure there will be no interruption to your booking service as the transition takes place. Of course, aircraft booking will continue to be free

Info

Aviation weather

METAR EGKB 160650Z 19009KT 9999 3000S SCT005 12/12 Q1017

Aviation weather from ADDS. Re-check weather before flight.

-